CZFN/ZFN METAR and TAF weather

Enter ICAO airport designator
Station Type Date Time Source
CZFN METAR 2019/06/26 16:00 UTC NOAA

CZFN 261600Z 31005KT 270V340 20SM FEW010 SCT050 BKN060 BKN200 09/06 A3025 RMK SF1CU3SC3CI1 SF TR CI TR DIST SHRA W TCU ASOCTD SLP251


Station Type Date Time Source
CZFN Decoded METAR 2019/06/26 16:00 UTC NOAA

Fort Norman Airport, Canada (CZFN) 64-55N 125-34W
Jun 26, 2019 - 12:00 PM EDT / 2019.06.26 1600 UTC
Wind: from the NW (310 degrees) at 6 MPH (5 KT) (direction variable):0
Visibility: 20 mile(s):0
Sky conditions: mostly cloudy
Weather: Towering cumulus clouds observed
Temperature: 48 F (9 C)
Dew Point: 42 F (6 C)
Relative Humidity: 81%
Pressure (altimeter): 30.25 in. Hg (1024 hPa)
ob: CZFN 261600Z 31005KT 270V340 20SM FEW010 SCT050 BKN060 BKN200 09/06 A3025 RMK SF1CU3SC3CI1 SF TR CI TR DIST SHRA W TCU ASOCTD SLP251
cycle: 16

Station Type Date Time Source
CZFN TAF UTC NOAA

Error!

Example: see airport list